Flight Track Log - Related Links

Times and Time Zones

All times are in EDT time to prevent confusion due to time zone crossing. See the CTL67 flight status page for this flight to view local times or setup timezone preferences in your user account.

Time Position Orientation Groundspeed Altitude Reporting Facility
EDT Latitude Longitude Course Direction KTS MPH feet Rate Location/Type
Sat 01:54:52 AM 33.5728 -86.7364 61° Northeast 105 121 1,800  Level Atlanta Center
Sat 01:55:52 AM 33.5819 -86.6919 76° East 121 139 2,800 942 Climbing Atlanta Center
Sat 01:56:53 AM 33.5911 -86.6547 74° East 126 145 3,700 836 Climbing Atlanta Center
Sat 01:57:54 AM 33.6067 -86.6153 65° Northeast 126 145 4,500 744 Climbing Atlanta Center
Sat 01:58:54 AM 33.6178 -86.5733 72° East 132 152 5,200 645 Climbing Atlanta Center
Sat 01:59:55 AM 33.6292 -86.5336 71° East 133 153 5,800 595 Climbing Atlanta Center
Sat 02:00:55 AM 33.6447 -86.4892 67° East 140 161 6,400 545 Climbing Atlanta Center
Sat 02:01:56 AM 33.6644 -86.4447 62° Northeast 144 166 6,900 248 Climbing Atlanta Center
Sat 02:02:56 AM 33.6819 -86.3978 66° East 165 190 6,900  Level Atlanta Center
Sat 02:03:56 AM 33.6975 -86.3483 69° East 171 197 6,900  Level Atlanta Center
Sat 02:04:56 AM 33.7172 -86.2964 65° Northeast 171 197 6,900 50 Level Atlanta Center
Sat 02:05:56 AM 33.7369 -86.2444 65° Northeast 166 191 7,000 50 Climbing Atlanta Center
Sat 02:06:56 AM 33.7567 -86.1925 65° Northeast 166 191 7,000  Level Atlanta Center
Sat 02:07:56 AM 33.7742 -86.1431 67° East 172 198 7,000  Level Atlanta Center
Sat 02:08:56 AM 33.7939 -86.0936 64° Northeast 172 198 7,000  Level Atlanta Center
Sat 02:09:56 AM 33.8133 -86.0414 66° East 172 198 7,000  Level Atlanta Center
Sat 02:10:56 AM 33.8353 -85.9869 64° Northeast 172 198 7,000  Level Atlanta Center
Sat 02:11:56 AM 33.8528 -85.9397 66° East 167 192 7,000  Level Atlanta Center
Sat 02:12:56 AM 33.8681 -85.8878 70° East 167 192 7,000  Level Atlanta Center
Sat 02:13:56 AM 33.8897 -85.8381 62° Northeast 167 192 7,000  Level Atlanta Center
Sat 02:14:56 AM 33.9050 -85.7958 66° East 167 192 7,000  Level Atlanta Center
Sat 02:15:56 AM 33.9264 -85.7461 63° Northeast 167 192 7,000  Level Atlanta Center
Sat 02:16:56 AM 33.9439 -85.6964 67° East 162 186 7,000  Level Atlanta Center
Sat 02:17:56 AM 33.9611 -85.6467 67° East 162 186 7,000  Level Atlanta Center
Sat 02:18:56 AM 33.9764 -85.5969 70° East 155 178 7,000  Level Atlanta Center
Sat 02:19:56 AM 34.0000 -85.5397 64° Northeast 155 178 7,000  Level Atlanta Center
Sat 02:20:56 AM 34.0153 -85.4900 70° East 155 178 7,000  Level Atlanta Center
Sat 02:21:56 AM 34.0325 -85.4400 67° East 155 178 7,000  Level Atlanta Center
Sat 02:22:56 AM 34.0519 -85.3903 65° Northeast 155 178 7,000  Level Atlanta Center
Sat 02:23:56 AM 34.0711 -85.3403 65° Northeast 155 178 7,000 -50 Level Atlanta Center
Sat 02:24:56 AM 34.0842 -85.2903 72° East 149 171 6,900 -50 Descending Atlanta Center
Sat 02:25:56 AM 34.1056 -85.2406 63° Northeast 154 177 6,900  Level Atlanta Center
Sat 02:26:56 AM 34.1250 -85.1906 65° Northeast 154 177 6,900  Level Atlanta Center
Sat 02:27:56 AM 34.1400 -85.1431 69° East 154 177 6,900  Level Atlanta Center
Sat 02:28:56 AM 34.1569 -85.0981 66° East 154 177 6,900  Level Atlanta Center
Sat 02:29:56 AM 34.1742 -85.0481 67° East 154 177 6,900  Level Atlanta Center
Sat 02:30:56 AM 34.1933 -84.9981 65° Northeast 154 177 6,900  Level Atlanta Center
Sat 02:31:56 AM 34.2106 -84.9481 67° East 154 177 6,900  Level Atlanta Center
Sat 02:32:56 AM 34.2297 -84.8956 66° East 154 177 6,900  Level Atlanta Center
Sat 02:33:56 AM 34.2486 -84.8406 67° East 154 177 6,900  Level Atlanta Center
Sat 02:34:56 AM 34.2658 -84.7903 67° East 159 183 6,900  Level Atlanta Center
Sat 02:35:56 AM 34.2847 -84.7378 66° East 159 183 6,900 50 Level Atlanta Center
Sat 02:36:56 AM 34.3019 -84.6850 68° East 159 183 7,000 50 Climbing Atlanta Center
Sat 02:37:56 AM 34.3231 -84.6350 63° Northeast 159 183 7,000  Level Atlanta Center
Sat 02:38:56 AM 34.3400 -84.5822 69° East 159 183 7,000  Level Atlanta Center
Sat 02:39:56 AM 34.3567 -84.5319 68° East 159 183 7,000  Level Atlanta Center
Sat 02:40:56 AM 34.3736 -84.4792 69° East 159 183 7,000  Level Atlanta Center
Sat 02:41:56 AM 34.3906 -84.4364 64° Northeast 159 183 7,000 -50 Level Atlanta Center
Sat 02:42:56 AM 34.4094 -84.3836 67° East 159 183 6,900  Descending Atlanta Center
Sat 02:43:56 AM 34.4264 -84.3308 69° East 165 190 7,000 50 Climbing Atlanta Center
Sat 02:44:56 AM 34.4472 -84.2781 64° Northeast 165 190 7,000 -50 Level Atlanta Center
Sat 02:45:56 AM 34.4642 -84.2278 68° East 165 190 6,900  Descending Atlanta Center
Sat 02:46:56 AM 34.4808 -84.1750 69° East 165 190 7,000 50 Climbing Atlanta Center
Sat 02:47:56 AM 34.4997 -84.1169 68° East 165 190 7,000 -50 Level Atlanta Center
Sat 02:48:56 AM 34.5186 -84.0664 66° East 171 197 6,900 -50 Descending Atlanta Center
Sat 02:49:56 AM 34.5353 -84.0111 70° East 171 197 6,900  Level Atlanta Center
Sat 02:50:56 AM 34.5539 -83.9606 66° East 166 191 6,900  Level Atlanta Center
Sat 02:51:56 AM 34.5706 -83.9100 68° East 161 185 6,900  Level Atlanta Center
Sat 02:52:56 AM 34.5892 -83.8597 66° East 161 185 6,900  Level Atlanta Center
Sat 02:53:56 AM 34.6081 -83.8067 67° East 161 185 6,900  Level Atlanta Center
Sat 02:54:56 AM 34.6267 -83.7586 65° Northeast 161 185 6,900  Level Atlanta Center
Sat 02:55:56 AM 34.6475 -83.7081 63° Northeast 155 178 6,900  Level Atlanta Center
Sat 02:56:56 AM 34.6639 -83.6625 66° East 155 178 6,900  Level Atlanta Center
Sat 02:57:56 AM 34.6806 -83.6119 68° East 155 178 6,900  Level Atlanta Center
Sat 02:58:56 AM 34.7033 -83.5611 61° Northeast 155 178 6,900  Level Atlanta Center
Sat 02:59:56 AM 34.7197 -83.5056 70° East 155 178 6,900  Level Atlanta Center
Sat 03:00:56 AM 34.7383 -83.4575 65° Northeast 155 178 6,900  Level Atlanta Center
Sat 03:01:56 AM 34.7569 -83.4067 66° East 155 178 6,900  Level Atlanta Center
Sat 03:02:56 AM 34.7753 -83.3611 64° Northeast 154 177 6,900  Level Atlanta Center
Sat 03:03:56 AM 34.7939 -83.3078 67° East 154 177 6,900  Level Atlanta Center
Sat 03:04:56 AM 34.8103 -83.2594 68° East 154 177 6,900  Level Atlanta Center
Sat 03:05:56 AM 34.8267 -83.2139 66° East 160 184 6,900  Level Atlanta Center
Sat 03:06:56 AM 34.8431 -83.1656 68° East 153 176 6,900  Level Atlanta Center
Sat 03:07:56 AM 34.8636 -83.1147 64° Northeast 153 176 6,900  Level Atlanta Center
Sat 03:08:56 AM 34.8797 -83.0639 69° East 159 183 6,900  Level Atlanta Center
Sat 03:09:56 AM 34.8981 -83.0131 66° East 153 176 6,900  Level Atlanta Center
Sat 03:10:56 AM 34.9144 -82.9647 68° East 153 176 6,900 50 Level Atlanta Center
Sat 03:11:56 AM 34.9328 -82.9164 65° Northeast 153 176 7,000 50 Climbing Atlanta Center
Sat 03:12:56 AM 34.9489 -82.8656 69° East 153 176 7,000  Level Atlanta Center
Sat 03:13:56 AM 34.9672 -82.8144 66° East 153 176 7,000  Level Atlanta Center
Sat 03:14:56 AM 34.9833 -82.7611 70° East 153 176 7,000  Level Atlanta Center
Sat 03:15:56 AM 34.9997 -82.7153 66° East 152 175 7,000  Level Atlanta Center
Sat 03:16:56 AM 35.0178 -82.6514 71° East 165 190 7,000 50 Level Atlanta Center
Sat 03:17:56 AM 35.0339 -82.6081 66° East 165 190 7,100 50 Climbing Atlanta Center
Sat 03:18:56 AM 35.0500 -82.5622 67° East 153 176 7,100  Level Atlanta Center
Sat 03:19:56 AM 35.0683 -82.5111 66° East 152 175 7,100  Level Atlanta Center
Sat 03:20:56 AM 35.0844 -82.4678 66° East 154 177 7,100  Level Atlanta Center
Sat 03:21:56 AM 35.1025 -82.4114 69° East 159 183 7,100  Level Atlanta Center
Sat 03:22:56 AM 35.1183 -82.3603 69° East 159 183 7,100  Level Atlanta Center
Sat 03:23:56 AM 35.1364 -82.3067 68° East 154 177 7,100  Level Atlanta Center
Sat 03:24:56 AM 35.1608 -82.2528 61° Northeast 154 177 7,100 50 Level Atlanta Center
Sat 03:25:56 AM 35.1767 -82.2017 69° East 161 185 7,200  Climbing Atlanta Center
Sat 03:26:56 AM 35.1928 -82.1556 67° East 156 180 7,100 -50 Descending Atlanta Center
Sat 03:27:56 AM 35.2106 -82.1042 67° East 156 180 7,100 -56 Level Atlanta Center
Sat 03:28:44 AM 35.2244 -82.0581 70° East 164 189 7,000 -53 Descending Atlanta Center
Sat 03:29:50 AM 35.2444 -82.0042 66° East 162 186 7,000 47 Level Atlanta Center
Sat 03:30:51 AM 35.2603 -81.9531 69° East 162 186 7,100 49 Climbing Atlanta Center
Sat 03:31:52 AM 35.2844 -81.8989 61° Northeast 163 188 7,100 -50 Level Atlanta Center
Sat 03:32:52 AM 35.3003 -81.8478 69° East 164 189 7,000  Descending Atlanta Center
Sat 03:33:53 AM 35.3203 -81.7989 63° Northeast 162 186 7,100 50 Climbing Atlanta Center
Sat 03:34:53 AM 35.3381 -81.7475 67° East 163 188 7,100  Level Atlanta Center
Sat 03:35:54 AM 35.3536 -81.6961 70° East 161 185 7,100  Level Atlanta Center
Sat 03:36:55 AM 35.3717 -81.6472 66° East 162 186 7,100  Level Atlanta Center
Sat 03:37:55 AM 35.3894 -81.5956 67° East 162 186 7,100 -50 Level Atlanta Center
Sat 03:38:56 AM 35.4050 -81.5417 70° East 161 185 7,000  Descending Atlanta Center
Sat 03:39:56 AM 35.4247 -81.4900 65° Northeast 161 185 7,100  Climbing Atlanta Center
Sat 03:40:57 AM 35.4403 -81.4386 70° East 160 184 7,000 -49 Descending Atlanta Center
Sat 03:41:58 AM 35.4558 -81.3872 70° East 162 186 7,000 -50 Level Atlanta Center
Sat 03:42:58 AM 35.4714 -81.3356 70° East 160 184 6,900  Descending Atlanta Center
Sat 03:43:59 AM 35.4850 -81.2867 71° East 162 186 7,000 50 Climbing Atlanta Center
Sat 03:44:59 AM 35.5047 -81.2350 65° Northeast 161 185 7,000  Level Atlanta Center
Sat 03:46:00 AM 35.5203 -81.1808 71° East 164 189 7,000  Level Atlanta Center
Sat 03:47:01 AM 35.5336 -81.1294 72° East 163 188 7,000  Level Atlanta Center
Sat 03:48:01 AM 35.5511 -81.0778 67° East 160 184 7,000  Level Atlanta Center
Sat 03:49:02 AM 35.5686 -81.0236 68° East 160 184 7,000  Level Atlanta Center
Sat 03:50:02 AM 35.5839 -80.9719 70° East 163 188 7,000  Level Atlanta Center
Sat 03:51:03 AM 35.6014 -80.9203 67° East 163 188 7,000  Level Atlanta Center
Sat 03:53:00 AM 35.6283 -80.8190 72° East  Level FlightAware Approximate
Sat 04:00:00 AM 35.7261 -80.4552 67° East  Level FlightAware Approximate
Sat 04:01:00 AM 35.7431 -80.4046 68° East  Level FlightAware Approximate
Sat 04:02:00 AM 35.7601 -80.3540 68° East  Level FlightAware Approximate
Sat 04:03:00 AM 35.7770 -80.3034 68° East  Level FlightAware Approximate
Sat 04:04:00 AM 35.7939 -80.2527 68° East  Level FlightAware Approximate
Sat 04:05:00 AM 35.8108 -80.2020 68° East  Level FlightAware Approximate
Sat 04:06:00 AM 35.8277 -80.1514 68° East  Level FlightAware Approximate
Sat 04:07:00 AM 35.8446 -80.1006 68° East  Level FlightAware Approximate
Sat 04:08:00 AM 35.8614 -80.0499 68° East  Level FlightAware Approximate
Sat 04:09:00 AM 35.8782 -79.9992 68° East  Level FlightAware Approximate
Sat 04:10:00 AM 35.8950 -79.9484 68° East  Level FlightAware Approximate
Sat 04:11:00 AM 35.9109 -79.8971 70° East  Level FlightAware Approximate
Sat 04:12:00 AM 35.9263 -79.8457 70° East  Level FlightAware Approximate
Sat 04:13:00 AM 35.9417 -79.7942 70° East  Level FlightAware Approximate
Sat 04:14:00 AM 35.9565 -79.7425 72° East  Level FlightAware Approximate
Sat 04:15:00 AM 35.9704 -79.6903 72° East  Level FlightAware Approximate
Sat 04:16:00 AM 35.9843 -79.6382 72° East  Level FlightAware Approximate
Sat 04:17:00 AM 35.9982 -79.5860 72° East  Level FlightAware Approximate
Sat 04:18:00 AM 36.0121 -79.5338 72° East  Level FlightAware Approximate
Sat 04:19:00 AM 36.0280 -79.4826 68° East  Level FlightAware Approximate
Sat 04:20:00 AM 36.0333 -79.4667 68° East  Level FlightAware Approximate
Sat 04:21:00 AM 36.0485 -79.4749 68° East  Level Estimated
Sat 04:22:00 AM 36.0485 -79.4749 68° East  Level Estimated
Sat 04:23:00 AM 36.0485 -79.4749 68° East  Level Estimated
Sat 04:24:00 AM 36.0485 -79.4749 68° East  Level Estimated
Sat 04:25:00 AM 36.0485 -79.4749 68° East  Level Estimated

Login

Don't have an account? Register now (free) for customized features, flight alerts, and more!